Time;durP1;ratioP1;P1;durP2;ratioP2;P2;SDS_P1;SDS_P2;PMS_P1;PMS_P2;Temp;Humidity;BMP_temperature;BMP_pressure;BME280_temperature;BME280_humidity;BME280_pressure;Samples;Min_cycle;Max_cycle;Signal;HPM_P1;HPM_P2
2022/01/26 06:41:01;;;;;;;12.30;4.00;;;4.00;99.90;;;;;;5567397;23;20464;-41
2022/01/26 06:43:31;;;;;;;13.53;4.47;;;3.90;99.90;;;;;;4893746;29;20461;-47
2022/01/26 06:46:02;;;;;;;11.53;4.43;;;3.90;99.90;;;;;;4889656;29;20460;-40
2022/01/26 06:51:19;;;;;;;11.30;4.30;;;4.00;99.90;;;;;;4886913;29;20491;-52
2022/01/26 06:53:45;;;;;;;10.47;3.83;;;4.00;99.90;;;;;;4895069;29;20451;-52
2022/01/26 06:56:14;;;;;;;10.90;4.10;;;4.00;99.90;;;;;;4895171;29;20487;-51
2022/01/26 06:58:40;;;;;;;12.60;4.73;;;4.00;99.90;;;;;;4896054;29;20949;-49
2022/01/26 07:01:07;;;;;;;16.93;5.00;;;4.00;99.90;;;;;;4896610;29;20448;-56
2022/01/26 07:03:34;;;;;;;8.83;5.27;;;4.10;99.90;;;;;;4895353;29;20520;-54
2022/01/26 07:06:00;;;;;;;15.67;5.67;;;4.10;99.90;;;;;;4894709;29;20462;-53
2022/01/26 07:08:27;;;;;;;12.37;4.33;;;4.20;99.90;;;;;;4894418;29;20479;-52
2022/01/26 07:10:54;;;;;;;10.03;3.50;;;4.10;99.90;;;;;;4895465;29;20531;-50
2022/01/26 07:13:23;;;;;;;10.67;4.90;;;4.10;99.90;;;;;;4894963;29;20456;-53
2022/01/26 07:21:27;;;;;;;22.50;5.27;;;4.10;99.90;;;;;;4895091;29;20462;-52
2022/01/26 07:23:54;;;;;;;14.70;4.40;;;4.10;99.90;;;;;;4896275;29;20488;-52
2022/01/26 07:26:21;;;;;;;10.40;4.43;;;4.10;99.90;;;;;;4896087;29;20463;-53
2022/01/26 07:28:49;;;;;;;10.77;5.03;;;4.00;99.90;;;;;;4895601;29;20468;-53
2022/01/26 07:31:16;;;;;;;10.27;3.40;;;4.00;99.90;;;;;;4895419;29;20467;-51
2022/01/26 07:33:43;;;;;;;5.27;3.23;;;4.00;99.90;;;;;;4895702;29;20483;-50
2022/01/26 07:36:10;;;;;;;14.13;3.90;;;4.10;99.90;;;;;;4895011;29;20563;-54
2022/01/26 07:38:37;;;;;;;10.27;5.53;;;4.00;99.90;;;;;;4894724;29;20456;-49
2022/01/26 07:41:05;;;;;;;15.63;6.13;;;4.00;99.90;;;;;;4894334;29;20475;-51
2022/01/26 07:43:32;;;;;;;16.10;4.37;;;4.10;99.90;;;;;;4896011;29;20455;-49
2022/01/26 07:46:00;;;;;;;15.33;6.60;;;4.10;99.90;;;;;;4894613;29;20470;-47
2022/01/26 07:48:26;;;;;;;10.33;2.90;;;4.10;99.90;;;;;;4896502;29;20448;-48
2022/01/26 07:50:55;;;;;;;12.07;5.40;;;4.10;99.90;;;;;;4899766;29;20475;-47
2022/01/26 07:53:22;;;;;;;20.37;7.03;;;4.10;99.90;;;;;;4898571;29;20459;-49
2022/01/26 07:55:49;;;;;;;8.97;4.93;;;4.10;99.90;;;;;;4898482;29;20588;-51
2022/01/26 07:58:17;;;;;;;9.70;5.17;;;4.10;99.90;;;;;;4897600;29;20480;-47
2022/01/26 08:00:44;;;;;;;15.10;4.90;;;4.10;99.90;;;;;;4897908;29;20462;-52
2022/01/26 08:03:12;;;;;;;8.90;4.60;;;4.20;99.90;;;;;;4897166;29;20543;-53
2022/01/26 08:05:39;;;;;;;7.00;3.57;;;4.20;99.90;;;;;;4898006;29;20510;-49
2022/01/26 08:08:06;;;;;;;9.93;3.53;;;4.20;99.90;;;;;;4897569;29;20467;-53
2022/01/26 08:10:36;;;;;;;15.83;4.27;;;4.30;99.90;;;;;;4899262;29;20494;-51
2022/01/26 08:13:03;;;;;;;11.00;4.73;;;4.20;99.90;;;;;;4898466;29;20455;-54
2022/01/26 08:15:30;;;;;;;13.80;4.00;;;4.20;99.90;;;;;;4897591;29;20484;-51
2022/01/26 08:17:58;;;;;;;13.73;4.43;;;4.30;99.90;;;;;;4897108;29;20475;-54
2022/01/26 08:20:26;;;;;;;15.37;5.03;;;4.30;99.90;;;;;;4898452;29;20528;-49
2022/01/26 08:22:55;;;;;;;13.53;7.60;;;4.20;99.90;;;;;;4897802;29;20488;-48
2022/01/26 08:25:22;;;;;;;17.10;6.87;;;4.20;99.90;;;;;;4897534;29;20481;-50
2022/01/26 08:27:55;;;;;;;9.73;5.90;;;4.20;99.90;;;;;;4897165;29;20488;-46
2022/01/26 08:30:22;;;;;;;13.57;6.43;;;4.20;99.90;;;;;;4898268;29;20443;-49
2022/01/26 08:32:49;;;;;;;15.27;5.90;;;4.20;99.90;;;;;;4898547;29;20496;-48
2022/01/26 08:35:16;;;;;;;9.80;4.57;;;4.30;99.90;;;;;;4898051;29;20487;-51
2022/01/26 08:37:44;;;;;;;17.00;7.30;;;4.30;99.90;;;;;;4897536;29;20960;-49
2022/01/26 08:40:11;;;;;;;10.17;3.50;;;4.30;99.90;;;;;;4896669;29;20466;-53
2022/01/26 08:42:41;;;;;;;10.20;4.10;;;4.30;99.90;;;;;;4897444;29;20448;-51
2022/01/26 08:45:10;;;;;;;6.33;3.93;;;4.30;99.90;;;;;;4897121;29;20448;-48
2022/01/26 08:47:37;;;;;;;8.83;4.83;;;4.30;99.90;;;;;;4897243;29;20511;-49
2022/01/26 08:50:05;;;;;;;10.60;4.00;;;4.30;99.90;;;;;;4897552;29;20474;-51
2022/01/26 08:52:32;;;;;;;11.10;5.27;;;4.30;99.90;;;;;;4897460;29;20476;-53
2022/01/26 08:55:00;;;;;;;7.30;3.13;;;4.20;99.90;;;;;;4896915;29;20448;-50
2022/01/26 08:57:27;;;;;;;2.13;1.93;;;4.20;99.90;;;;;;4896609;29;20452;-53
2022/01/26 08:59:54;;;;;;;16.03;4.53;;;4.20;99.90;;;;;;4898785;29;20460;-53
2022/01/26 09:02:21;;;;;;;8.90;5.23;;;4.20;99.90;;;;;;4899013;29;20480;-52
2022/01/26 09:04:47;;;;;;;8.30;4.10;;;4.20;99.90;;;;;;4897705;29;20599;-53
2022/01/26 09:07:15;;;;;;;13.27;3.97;;;4.20;99.90;;;;;;4896101;29;20487;-49
2022/01/26 09:09:45;;;;;;;8.37;4.33;;;4.30;99.90;;;;;;4897312;29;20769;-53
2022/01/26 09:12:15;;;;;;;7.57;4.03;;;4.30;99.90;;;;;;4897061;29;20558;-50
2022/01/26 09:14:43;;;;;;;10.53;5.00;;;4.30;99.90;;;;;;4896816;29;20477;-47
2022/01/26 09:17:11;;;;;;;8.60;3.67;;;4.20;99.90;;;;;;4896619;29;20510;-51
2022/01/26 09:19:42;;;;;;;12.13;3.83;;;4.20;99.90;;;;;;4897926;29;20890;-49
2022/01/26 09:22:11;;;;;;;13.43;4.03;;;4.20;99.90;;;;;;4897357;29;20424;-50
2022/01/26 09:24:40;;;;;;;8.40;4.03;;;4.20;99.90;;;;;;4895279;29;20464;-50
2022/01/26 09:27:09;;;;;;;15.03;7.30;;;4.20;99.90;;;;;;4896356;29;20448;-53
2022/01/26 09:29:38;;;;;;;7.77;4.23;;;4.30;99.90;;;;;;4897807;29;20843;-54
2022/01/26 09:32:07;;;;;;;11.87;5.10;;;4.30;99.90;;;;;;4898090;29;20471;-53
2022/01/26 09:34:36;;;;;;;10.43;4.10;;;4.30;99.90;;;;;;4896388;29;20571;-52
2022/01/26 09:37:06;;;;;;;5.60;2.80;;;4.30;99.90;;;;;;4896265;29;20517;-50
2022/01/26 09:39:34;;;;;;;7.20;3.50;;;4.30;99.90;;;;;;4897145;29;20527;-52
2022/01/26 09:42:03;;;;;;;36.60;3.90;;;4.30;99.90;;;;;;4884361;29;20484;-55
2022/01/26 09:44:31;;;;;;;9.03;3.43;;;4.20;99.90;;;;;;4882808;29;20459;-51
2022/01/26 09:47:00;;;;;;;6.20;3.80;;;4.20;99.90;;;;;;4881767;29;20503;-54
2022/01/26 09:49:32;;;;;;;4.93;2.53;;;4.20;99.90;;;;;;4881645;29;20487;-50
2022/01/26 09:52:02;;;;;;;7.20;2.70;;;4.20;99.90;;;;;;4881948;29;20451;-50
2022/01/26 09:54:31;;;;;;;6.97;3.83;;;4.10;99.90;;;;;;4882218;29;20947;-54
2022/01/26 09:57:02;;;;;;;7.03;3.80;;;4.10;99.90;;;;;;4881676;29;20484;-50
2022/01/26 09:59:29;;;;;;;7.90;4.63;;;4.20;99.90;;;;;;4881790;29;20445;-54
2022/01/26 10:01:57;;;;;;;7.33;5.03;;;4.20;99.90;;;;;;4881905;29;20456;-52
2022/01/26 10:04:28;;;;;;;6.00;4.20;;;4.20;99.90;;;;;;4881674;29;20523;-57
2022/01/26 10:07:06;;;;;;;15.27;3.90;;;4.30;99.90;;;;;;4882180;29;20508;-50
2022/01/26 10:09:57;;;;;;;8.73;4.40;;;4.40;99.90;;;;;;4882253;29;20488;-51
2022/01/26 10:15:28;;;;;;;11.13;4.50;;;4.40;99.90;;;;;;4881949;29;20484;-59
2022/01/26 10:18:06;;;;;;;7.53;4.10;;;4.40;99.90;;;;;;4882044;29;20886;-50
2022/01/26 10:20:48;;;;;;;17.93;4.50;;;4.30;99.90;;;;;;4881517;29;20436;-51
2022/01/26 10:23:18;;;;;;;5.37;3.03;;;4.30;99.90;;;;;;4881230;29;20539;-54
2022/01/26 10:25:48;;;;;;;14.10;3.60;;;4.30;99.90;;;;;;4881438;29;20821;-54
2022/01/26 10:28:17;;;;;;;6.43;4.70;;;4.40;99.90;;;;;;4882361;29;20479;-50
2022/01/26 10:30:47;;;;;;;6.33;2.63;;;4.30;99.90;;;;;;4881331;29;20452;-52
2022/01/26 10:33:17;;;;;;;12.23;5.70;;;4.30;99.90;;;;;;4881117;29;20555;-55
2022/01/26 10:35:47;;;;;;;6.80;4.10;;;4.30;99.90;;;;;;4881025;29;20472;-52
2022/01/26 10:38:15;;;;;;;9.03;3.10;;;4.30;99.90;;;;;;4881479;29;20535;-58
2022/01/26 10:40:42;;;;;;;13.67;3.53;;;4.20;99.90;;;;;;4881907;29;20478;-52
2022/01/26 10:43:12;;;;;;;11.40;3.90;;;4.40;99.90;;;;;;4880959;29;20483;-50
2022/01/26 10:45:55;;;;;;;3.63;2.03;;;4.40;99.90;;;;;;4881388;29;20540;-55
2022/01/26 10:48:31;;;;;;;7.03;3.77;;;4.40;99.90;;;;;;4882139;29;20483;-56
2022/01/26 10:54:08;;;;;;;10.37;3.67;;;4.50;99.90;;;;;;4880914;29;20471;-53
2022/01/26 10:56:35;;;;;;;10.07;2.70;;;4.50;99.90;;;;;;4881122;29;20490;-54
2022/01/26 10:59:03;;;;;;;3.43;2.53;;;4.50;99.90;;;;;;4881359;29;20545;-56
2022/01/26 11:01:30;;;;;;;6.90;4.13;;;4.50;99.90;;;;;;4881695;29;20484;-50
2022/01/26 11:03:57;;;;;;;7.03;3.33;;;4.70;99.90;;;;;;4881132;29;20483;-53
2022/01/26 11:06:27;;;;;;;5.47;3.17;;;4.70;99.90;;;;;;4880992;29;20486;-51
2022/01/26 11:08:58;;;;;;;3.17;2.10;;;4.80;99.90;;;;;;4881061;29;20567;-50
2022/01/26 11:11:25;;;;;;;8.20;1.80;;;4.80;99.90;;;;;;4882245;29;20463;-52
2022/01/26 11:13:54;;;;;;;3.93;3.57;;;4.80;99.90;;;;;;4881127;29;20486;-51
2022/01/26 11:16:21;;;;;;;5.37;2.93;;;4.80;99.90;;;;;;4880959;29;20480;-52
2022/01/26 11:18:51;;;;;;;2.90;1.60;;;4.80;99.90;;;;;;4880785;29;20471;-63
2022/01/26 11:21:35;;;;;;;2.80;1.97;;;4.80;99.90;;;;;;4881536;29;20479;-53
2022/01/26 11:24:07;;;;;;;3.87;2.40;;;4.70;99.90;;;;;;4882547;29;20490;-53
2022/01/26 11:26:35;;;;;;;7.80;3.17;;;4.70;99.90;;;;;;4885243;29;20458;-53
2022/01/26 11:29:02;;;;;;;3.27;1.57;;;4.60;99.90;;;;;;4884919;29;20474;-53
2022/01/26 11:31:32;;;;;;;3.30;1.60;;;4.40;99.90;;;;;;4884868;29;20462;-53
2022/01/26 11:34:00;;;;;;;3.67;2.60;;;4.40;99.90;;;;;;4885343;29;20475;-56
2022/01/26 11:36:31;;;;;;;5.63;2.30;;;4.40;99.90;;;;;;4885354;29;20503;-59
2022/01/26 11:47:29;;;;;;;7.70;1.77;;;4.30;99.90;;;;;;4878322;29;20442;-51
2022/01/26 11:50:08;;;;;;;4.23;1.73;;;4.30;99.90;;;;;;4884233;29;20480;-48
2022/01/26 11:52:38;;;;;;;4.07;1.93;;;4.20;99.90;;;;;;4884797;29;20467;-49
2022/01/26 11:55:10;;;;;;;6.80;3.23;;;4.20;99.90;;;;;;4884661;29;20459;-49
2022/01/26 11:57:39;;;;;;;3.10;1.90;;;4.10;99.90;;;;;;4883898;29;20539;-52
2022/01/26 12:00:11;;;;;;;2.90;1.67;;;4.10;99.90;;;;;;4884383;29;20937;-54
2022/01/26 12:02:51;;;;;;;3.27;1.87;;;3.90;99.90;;;;;;4884184;29;20576;-52
2022/01/26 12:05:22;;;;;;;4.83;2.73;;;3.90;99.90;;;;;;4883750;29;20486;-52
2022/01/26 12:07:51;;;;;;;4.07;3.30;;;3.80;99.90;;;;;;4884014;29;20440;-54
2022/01/26 12:10:27;;;;;;;4.57;1.00;;;3.80;99.90;;;;;;4884007;29;20476;-52
2022/01/26 12:13:02;;;;;;;9.80;3.43;;;3.80;99.90;;;;;;4883511;29;20530;-57
2022/01/26 12:15:33;;;;;;;4.10;2.80;;;3.80;99.90;;;;;;4883726;29;20550;-58
2022/01/26 12:18:16;;;;;;;4.57;2.87;;;3.80;99.90;;;;;;4883976;29;20480;-59
2022/01/26 12:32:38;;;;;;;5.03;2.93;;;3.70;99.90;;;;;;4903966;29;20412;-47
2022/01/26 12:35:19;;;;;;;5.70;1.83;;;3.70;99.90;;;;;;4902190;29;20852;-52
2022/01/26 12:37:55;;;;;;;6.77;2.90;;;3.70;99.90;;;;;;4903804;29;20475;-45
2022/01/26 12:43:15;;;;;;;4.30;1.97;;;3.70;99.90;;;;;;4903534;29;20451;-52
2022/01/26 12:45:42;;;;;;;1.20;0.90;;;3.70;99.90;;;;;;4903554;29;20464;-52
2022/01/26 12:48:12;;;;;;;7.10;2.73;;;3.70;99.90;;;;;;4903574;29;20451;-44
2022/01/26 12:50:40;;;;;;;2.43;1.50;;;3.60;99.90;;;;;;4903028;29;20454;-53
2022/01/26 12:53:09;;;;;;;5.63;2.37;;;3.60;99.90;;;;;;4903217;29;20460;-51
2022/01/26 12:55:41;;;;;;;3.20;2.20;;;3.70;99.90;;;;;;4903396;29;20452;-47
2022/01/26 12:58:09;;;;;;;8.97;2.70;;;3.70;99.90;;;;;;4902854;29;20459;-52
2022/01/26 13:00:41;;;;;;;2.90;1.67;;;3.80;99.90;;;;;;4903003;29;20480;-50
2022/01/26 13:03:13;;;;;;;3.57;1.90;;;3.70;99.90;;;;;;4903245;29;20440;-53
2022/01/26 13:05:40;;;;;;;5.13;2.40;;;3.80;99.90;;;;;;4903101;29;20483;-49
2022/01/26 13:08:13;;;;;;;3.90;2.20;;;3.70;99.90;;;;;;4903187;29;20456;-59
2022/01/26 13:10:44;;;;;;;4.57;1.57;;;3.70;99.90;;;;;;4903462;29;20460;-55
2022/01/26 13:13:17;;;;;;;4.97;1.83;;;3.80;99.90;;;;;;4903114;29;20420;-50
2022/01/26 13:16:03;;;;;;;7.67;2.50;;;3.80;99.90;;;;;;4903675;29;20480;-51
2022/01/26 13:19:04;;;;;;;6.80;2.77;;;3.70;99.90;;;;;;4903357;29;20416;-53
2022/01/26 13:21:48;;;;;;;3.10;2.20;;;3.60;99.90;;;;;;4902802;29;20451;-50
2022/01/26 13:24:30;;;;;;;9.77;4.43;;;3.60;99.90;;;;;;4902592;29;20459;-48
2022/01/26 13:27:08;;;;;;;5.20;1.70;;;3.60;99.90;;;;;;4902560;29;20454;-52
2022/01/26 13:29:50;;;;;;;8.57;4.20;;;3.60;99.90;;;;;;4902776;29;20503;-50
2022/01/26 13:35:21;;;;;;;8.23;3.53;;;3.50;99.90;;;;;;4902763;29;20458;-49
2022/01/26 13:38:07;;;;;;;3.50;2.33;;;3.50;99.90;;;;;;4902823;29;20479;-46
2022/01/26 13:40:58;;;;;;;4.80;2.63;;;3.50;99.90;;;;;;4902954;29;20463;-50
2022/01/26 13:49:26;;;;;;;8.53;4.00;;;3.20;99.90;;;;;;4902681;29;20439;-48
2022/01/26 13:57:45;;;;;;;6.83;3.37;;;3.20;99.90;;;;;;4886809;29;20470;-53
2022/01/26 14:00:18;;;;;;;15.00;4.77;;;3.20;99.90;;;;;;4902439;29;20507;-50
2022/01/26 14:02:48;;;;;;;6.80;2.67;;;3.20;99.90;;;;;;4902733;29;20440;-51
2022/01/26 14:05:15;;;;;;;9.53;3.93;;;3.20;99.90;;;;;;4902135;29;20504;-51
2022/01/26 14:07:42;;;;;;;18.27;5.50;;;3.20;99.90;;;;;;4902507;29;20467;-49
2022/01/26 14:10:10;;;;;;;11.70;3.63;;;3.30;99.90;;;;;;4902077;29;20474;-53
2022/01/26 14:12:41;;;;;;;14.27;4.93;;;3.30;99.90;;;;;;4902311;29;20460;-48
2022/01/26 14:15:09;;;;;;;6.27;3.97;;;3.30;99.90;;;;;;4901747;29;20463;-50
2022/01/26 14:17:55;;;;;;;6.17;3.53;;;3.30;99.90;;;;;;4959414;23;20514;-57
2022/01/26 14:20:42;;;;;;;11.93;5.27;;;3.30;99.90;;;;;;4919993;29;20478;-56
2022/01/26 14:23:42;;;;;;;9.30;4.97;;;3.30;99.90;;;;;;4920041;29;20479;-53
2022/01/26 14:26:11;;;;;;;17.63;4.60;;;3.20;99.90;;;;;;4919413;29;20470;-58
2022/01/26 14:28:39;;;;;;;4.67;3.23;;;3.10;99.90;;;;;;4919663;29;20625;-54
2022/01/26 14:34:21;;;;;;;12.57;3.47;;;3.10;99.90;;;;;;4918471;29;20462;-53
2022/01/26 14:37:03;;;;;;;4.97;3.60;;;3.10;99.90;;;;;;4919059;29;20509;-55
2022/01/26 14:39:57;;;;;;;12.47;3.37;;;3.20;99.90;;;;;;4919163;29;20500;-52
2022/01/26 14:51:01;;;;;;;18.30;5.17;;;3.20;99.90;;;;;;4919851;29;20466;-56
2022/01/26 15:00:04;;;;;;;17.97;6.23;;;3.20;99.90;;;;;;4919190;29;20500;-54
2022/01/26 15:11:35;;;;;;;19.23;6.77;;;3.40;99.90;;;;;;4847998;29;20477;-52
2022/01/26 15:30:17;;;;;;;7.00;3.93;;;3.20;99.90;;;;;;4923598;29;20415;-50
2022/01/26 15:35:39;;;;;;;11.97;4.43;;;3.20;99.90;;;;;;4923087;29;20459;-55
2022/01/26 15:41:03;;;;;;;6.97;3.07;;;3.10;99.90;;;;;;4923147;29;20489;-54
2022/01/26 15:49:29;;;;;;;11.03;4.30;;;3.10;99.90;;;;;;4922772;29;20419;-52
2022/01/26 15:52:09;;;;;;;8.37;3.77;;;3.10;99.90;;;;;;4922652;29;20490;-60
2022/01/26 16:12:41;;;;;;;11.60;5.70;;;3.10;99.90;;;;;;4921682;29;20451;-59
2022/01/26 16:17:24;;;;;;;11.83;3.97;;;3.20;99.90;;;;;;4921954;29;20460;-54
2022/01/26 16:53:55;;;;;;;31.70;9.33;;;3.10;99.90;;;;;;4921391;29;20473;-56
2022/01/26 18:16:24;;;;;;;31.87;9.63;;;3.20;99.90;;;;;;4887133;29;20426;-56
2022/01/26 18:32:44;;;;;;;60.10;15.90;;;3.20;99.90;;;;;;4920237;29;20458;-56
2022/01/26 18:40:51;;;;;;;45.37;11.60;;;3.20;99.90;;;;;;4920000;29;20419;-57
2022/01/26 18:46:46;;;;;;;38.17;12.23;;;3.20;99.90;;;;;;4920531;29;20427;-52
2022/01/26 18:49:14;;;;;;;24.03;7.63;;;3.20;99.90;;;;;;4919702;29;20506;-51
2022/01/26 18:51:44;;;;;;;43.23;10.73;;;3.20;99.90;;;;;;4919922;29;20435;-59
2022/01/26 18:54:13;;;;;;;31.70;11.00;;;3.20;99.90;;;;;;4919791;29;20480;-58
2022/01/26 18:56:41;;;;;;;24.00;10.57;;;3.30;99.90;;;;;;4919661;29;20447;-56
2022/01/26 18:59:11;;;;;;;42.83;14.20;;;3.20;99.90;;;;;;4919022;29;20511;-49
2022/01/26 19:01:38;;;;;;;46.03;13.97;;;3.30;99.90;;;;;;4919201;29;20481;-51
2022/01/26 19:04:05;;;;;;;31.90;11.37;;;3.30;99.90;;;;;;4905375;29;20547;-55
2022/01/26 19:06:33;;;;;;;35.23;13.67;;;3.30;99.90;;;;;;4919212;29;20499;-52
2022/01/26 19:09:00;;;;;;;34.53;8.90;;;3.30;99.90;;;;;;4919028;29;20475;-50
2022/01/26 19:11:27;;;;;;;28.37;8.33;;;3.30;99.90;;;;;;4919088;29;20470;-54
2022/01/26 19:13:54;;;;;;;40.17;11.37;;;3.40;99.90;;;;;;4918868;29;20892;-51
2022/01/26 19:16:32;;;;;;;36.07;9.73;;;3.30;99.90;;;;;;4919280;29;20438;-53
2022/01/26 19:19:08;;;;;;;41.00;12.40;;;3.30;99.90;;;;;;4919509;29;20490;-53
2022/01/26 19:27:26;;;;;;;28.10;10.70;;;3.40;99.90;;;;;;4861678;29;20429;-57
2022/01/26 19:44:04;;;;;;;28.77;10.70;;;3.40;99.90;;;;;;4895246;29;20471;-57
2022/01/26 19:46:45;;;;;;;23.67;5.70;;;3.40;99.90;;;;;;4922284;29;20438;-53
2022/01/26 19:52:08;;;;;;;21.43;9.20;;;3.40;99.90;;;;;;4922389;29;20441;-54
2022/01/26 19:54:35;;;;;;;32.57;13.03;;;3.40;99.90;;;;;;4922521;29;20534;-54
2022/01/26 19:57:05;;;;;;;29.73;12.70;;;3.40;99.90;;;;;;4922620;29;20514;-59
2022/01/26 19:59:33;;;;;;;24.30;8.43;;;3.40;99.90;;;;;;4922168;29;20449;-53
2022/01/26 20:01:59;;;;;;;37.90;14.13;;;3.40;99.90;;;;;;4922619;29;20435;-50
2022/01/26 20:04:30;;;;;;;29.47;10.50;;;3.40;99.90;;;;;;4921972;29;20431;-50
2022/01/26 20:07:01;;;;;;;24.40;8.43;;;3.40;99.90;;;;;;4922261;29;20462;-55
2022/01/26 20:09:32;;;;;;;40.20;12.47;;;3.40;99.90;;;;;;4922387;29;20416;-55
2022/01/26 20:11:59;;;;;;;42.80;15.50;;;3.50;99.90;;;;;;4903438;29;20471;-56
2022/01/26 20:14:32;;;;;;;23.67;9.77;;;3.50;99.90;;;;;;4903758;29;20492;-49
2022/01/26 20:17:00;;;;;;;36.77;13.03;;;3.50;99.90;;;;;;4921809;29;20494;-48
2022/01/26 20:19:28;;;;;;;35.87;9.37;;;3.50;99.90;;;;;;4922096;29;20475;-56
2022/01/26 20:21:55;;;;;;;35.10;10.40;;;3.50;99.90;;;;;;4921891;29;20451;-50
2022/01/26 20:24:22;;;;;;;31.57;10.90;;;3.50;99.90;;;;;;4921718;29;20485;-57
2022/01/26 20:26:51;;;;;;;14.63;9.83;;;3.50;99.90;;;;;;4921427;29;20472;-51
2022/01/26 20:29:21;;;;;;;17.97;5.20;;;3.60;99.90;;;;;;4917871;29;20470;-57
2022/01/26 20:31:50;;;;;;;32.87;10.67;;;3.50;99.90;;;;;;4909980;29;20511;-54
2022/01/26 20:34:16;;;;;;;23.77;10.57;;;3.50;99.90;;;;;;4907693;29;20482;-58
2022/01/26 20:36:45;;;;;;;20.20;7.70;;;3.60;99.90;;;;;;4921771;29;20461;-51
2022/01/26 20:39:12;;;;;;;22.67;11.93;;;3.50;99.90;;;;;;4921577;29;20646;-58
2022/01/26 20:41:39;;;;;;;24.80;9.07;;;3.50;99.90;;;;;;4921246;29;20455;-56
2022/01/26 20:44:06;;;;;;;27.40;9.53;;;3.60;99.90;;;;;;4921648;29;20458;-50
2022/01/26 20:46:33;;;;;;;36.57;12.07;;;3.60;99.90;;;;;;4921129;29;20447;-56
2022/01/26 20:49:00;;;;;;;24.93;10.47;;;3.60;99.90;;;;;;4921076;29;20438;-54
2022/01/26 20:51:27;;;;;;;18.20;7.40;;;3.60;99.90;;;;;;4920944;29;20490;-48
2022/01/26 20:53:55;;;;;;;13.37;8.20;;;3.70;99.90;;;;;;4921403;29;20475;-56
2022/01/26 20:56:22;;;;;;;35.43;12.10;;;3.70;99.90;;;;;;4920464;29;20474;-55
2022/01/26 20:58:49;;;;;;;29.47;9.30;;;3.60;99.90;;;;;;4920653;29;20491;-55
2022/01/26 21:01:16;;;;;;;23.73;8.87;;;3.70;99.90;;;;;;4921046;29;20475;-57
2022/01/26 21:03:44;;;;;;;28.57;7.37;;;3.70;99.90;;;;;;4920615;29;20459;-54
2022/01/26 21:06:10;;;;;;;25.53;8.83;;;3.80;99.90;;;;;;4920970;29;20475;-54
2022/01/26 21:08:38;;;;;;;25.80;10.77;;;3.80;99.90;;;;;;4920868;29;20530;-49
2022/01/26 21:11:06;;;;;;;18.93;7.50;;;3.70;99.90;;;;;;4920892;29;20543;-55
2022/01/26 21:13:36;;;;;;;19.63;8.30;;;3.70;99.90;;;;;;4920891;29;20487;-47
2022/01/26 21:16:04;;;;;;;21.97;7.47;;;3.70;99.90;;;;;;4920912;29;20522;-55
2022/01/26 21:18:33;;;;;;;26.60;7.67;;;3.70;99.90;;;;;;4919881;29;20482;-54
2022/01/26 21:21:00;;;;;;;27.33;10.73;;;3.70;99.90;;;;;;4920619;29;20470;-52
2022/01/26 21:23:27;;;;;;;32.40;9.47;;;3.70;99.90;;;;;;4920663;29;20451;-55
2022/01/26 21:25:54;;;;;;;25.57;5.30;;;3.70;99.90;;;;;;4920869;29;20574;-48
2022/01/26 21:28:22;;;;;;;16.80;8.63;;;3.80;99.90;;;;;;4920711;29;20439;-55
2022/01/26 21:30:49;;;;;;;16.73;5.30;;;3.80;99.90;;;;;;4921289;29;20467;-53
2022/01/26 21:33:18;;;;;;;33.87;10.73;;;3.80;99.90;;;;;;4920989;29;20443;-55
2022/01/26 21:35:45;;;;;;;28.40;11.67;;;3.80;99.90;;;;;;4920485;29;20465;-56
2022/01/26 21:38:11;;;;;;;26.43;8.80;;;3.80;99.90;;;;;;4920315;29;20483;-55
2022/01/26 21:40:38;;;;;;;12.73;5.60;;;3.80;99.90;;;;;;4920170;29;20455;-53
2022/01/26 21:43:05;;;;;;;18.37;8.10;;;3.80;99.90;;;;;;4920058;29;20508;-49
2022/01/26 21:45:35;;;;;;;24.60;8.67;;;3.80;99.90;;;;;;4920254;29;20503;-53
2022/01/26 21:48:02;;;;;;;18.40;6.07;;;3.70;99.90;;;;;;4920014;29;20763;-52
2022/01/26 21:50:29;;;;;;;16.13;8.67;;;3.80;99.90;;;;;;4919892;29;20467;-52
2022/01/26 21:52:56;;;;;;;16.47;6.27;;;3.70;99.90;;;;;;4919755;29;20447;-50
2022/01/26 21:55:22;;;;;;;18.93;7.73;;;3.80;99.90;;;;;;4920434;29;20447;-58
2022/01/26 21:57:49;;;;;;;21.80;8.50;;;3.80;99.90;;;;;;4919864;29;20496;-50
2022/01/26 22:00:19;;;;;;;16.63;8.47;;;3.80;99.90;;;;;;4919986;29;20471;-57
2022/01/26 22:02:49;;;;;;;27.23;8.60;;;3.80;99.90;;;;;;4920027;29;20498;-54
2022/01/26 22:05:16;;;;;;;18.10;8.30;;;3.90;99.90;;;;;;4920081;29;20473;-54
2022/01/26 22:07:42;;;;;;;18.13;8.00;;;3.90;99.90;;;;;;4918880;29;20479;-57
2022/01/26 22:10:09;;;;;;;27.93;10.63;;;3.90;99.90;;;;;;4919286;29;20500;-52
2022/01/26 22:12:36;;;;;;;28.33;10.03;;;3.90;99.90;;;;;;4919709;29;20460;-48
2022/01/26 22:15:03;;;;;;;29.37;9.87;;;3.90;99.90;;;;;;4918992;29;20531;-54
2022/01/26 22:17:30;;;;;;;22.73;9.20;;;3.90;99.90;;;;;;4919140;29;20451;-54
2022/01/26 22:19:59;;;;;;;17.63;8.30;;;3.90;99.90;;;;;;4919448;29;20507;-50
2022/01/26 22:22:25;;;;;;;20.50;9.00;;;3.90;99.90;;;;;;4919252;29;20569;-55
2022/01/26 22:24:52;;;;;;;23.80;8.97;;;3.90;99.90;;;;;;4919589;29;20459;-53
2022/01/26 22:27:25;;;;;;;12.57;7.50;;;3.90;99.90;;;;;;4918280;29;20487;-55
2022/01/26 22:29:52;;;;;;;30.87;8.60;;;3.90;99.90;;;;;;4917596;29;20487;-48
2022/01/26 22:32:19;;;;;;;29.27;10.80;;;3.90;99.90;;;;;;4917884;29;20452;-52
2022/01/26 22:34:45;;;;;;;11.70;6.43;;;3.90;99.90;;;;;;4917891;29;20482;-53
2022/01/26 22:37:23;;;;;;;22.87;8.60;;;3.90;99.90;;;;;;4961668;23;20465;-52
2022/01/26 22:39:51;;;;;;;19.77;7.43;;;3.90;99.90;;;;;;4917859;29;20491;-46
2022/01/26 22:42:17;;;;;;;20.93;8.57;;;3.90;99.90;;;;;;4918672;29;20455;-47
2022/01/26 22:44:44;;;;;;;14.53;6.37;;;3.90;99.90;;;;;;4919019;29;20451;-53
2022/01/26 22:47:11;;;;;;;34.17;10.43;;;3.90;99.90;;;;;;4918203;29;20462;-52
2022/01/26 22:49:38;;;;;;;40.23;8.53;;;3.90;99.90;;;;;;4918914;29;20447;-48
2022/01/26 22:52:06;;;;;;;21.53;7.97;;;3.90;99.90;;;;;;4918594;29;20489;-50
2022/01/26 22:54:36;;;;;;;27.77;9.87;;;4.00;99.90;;;;;;4917955;29;20455;-56
2022/01/26 22:57:04;;;;;;;24.37;8.00;;;4.00;99.90;;;;;;4918692;29;20461;-51
2022/01/26 22:59:31;;;;;;;28.63;10.37;;;4.00;99.90;;;;;;4918407;29;20483;-53
2022/01/26 23:02:39;;;;;;;14.97;6.77;;;3.90;99.90;;;;;;4918211;29;20475;-51
2022/01/26 23:05:06;;;;;;;20.07;8.83;;;3.90;99.90;;;;;;4918662;29;20470;-58
2022/01/26 23:07:34;;;;;;;17.57;9.00;;;3.90;99.90;;;;;;4918563;29;20514;-51
2022/01/26 23:10:02;;;;;;;31.77;10.70;;;3.90;99.90;;;;;;4917396;29;20467;-57
2022/01/26 23:12:29;;;;;;;27.93;8.97;;;4.00;99.90;;;;;;4918112;29;20443;-56
2022/01/26 23:14:56;;;;;;;17.07;8.70;;;4.00;99.90;;;;;;4918651;29;20458;-55
2022/01/26 23:17:23;;;;;;;22.63;9.37;;;4.00;99.90;;;;;;4918381;29;20479;-56
2022/01/26 23:19:49;;;;;;;25.60;10.17;;;4.00;99.90;;;;;;4918711;29;20487;-56
2022/01/26 23:22:17;;;;;;;32.50;9.20;;;4.00;99.90;;;;;;4922351;29;20466;-52
2022/01/26 23:24:59;;;;;;;11.40;7.47;;;3.90;99.90;;;;;;4922464;29;20513;-52
2022/01/26 23:27:40;;;;;;;13.90;7.97;;;4.00;99.90;;;;;;4922958;29;20451;-52
2022/01/26 23:30:22;;;;;;;23.83;8.97;;;4.00;99.90;;;;;;4922182;29;20439;-50
2022/01/26 23:33:12;;;;;;;21.27;9.10;;;4.00;99.90;;;;;;4921693;29;20449;-54
2022/01/26 23:35:55;;;;;;;20.10;7.97;;;4.00;99.90;;;;;;4921484;29;20479;-55
2022/01/26 23:38:29;;;;;;;20.37;7.90;;;4.00;99.90;;;;;;4921733;29;20474;-56
2022/01/26 23:41:29;;;;;;;20.47;10.00;;;4.00;99.90;;;;;;4922227;29;20461;-57
2022/01/26 23:44:09;;;;;;;15.30;7.03;;;4.10;99.90;;;;;;4921575;29;20459;-51
2022/01/26 23:57:58;;;;;;;25.20;9.33;;;4.10;99.90;;;;;;4921242;29;20422;-53
